Time;durP1;ratioP1;P1;durP2;ratioP2;P2;SDS_P1;SDS_P2;PMS_P1;PMS_P2;Temp;Humidity;BMP_temperature;BMP_pressure;BME280_temperature;BME280_humidity;BME280_pressure;Samples;Min_cycle;Max_cycle;Signal;HPM_P1;HPM_P2
2023/05/07 00:02:09;;;;;;;;;;;;;;;;;;5049651;28;19935;-66
2023/05/07 00:04:37;;;;;;;;;;;;;;;;;;5050273;28;20016;-66
2023/05/07 00:07:03;;;;;;;;;;;;;;;;;;5050607;28;19960;-64
2023/05/07 00:09:29;;;;;;;;;;;;;;;;;;5041133;28;20306;-65
2023/05/07 00:11:55;;;;;;;;;;;;;;;;;;5050394;28;19924;-66
2023/05/07 00:14:21;;;;;;;;;;;;;;;;;;5051230;28;19974;-65
2023/05/07 00:16:47;;;;;;;;;;;;;;;;;;5049852;28;19966;-66
2023/05/07 00:19:13;;;;;;;;;;;;;;;;;;5051692;28;19921;-66
2023/05/07 00:21:39;;;;;;;;;;;;;;;;;;5049551;28;20390;-66
2023/05/07 00:24:04;;;;;;;;;;;;;;;;;;5052445;28;19927;-66
2023/05/07 00:26:30;;;;;;;;;;;;;;;;;;5053295;28;20367;-65
2023/05/07 00:28:56;;;;;;;;;;;;;;;;;;5053416;28;19967;-65
2023/05/07 00:31:22;;;;;;;;;;;;;;;;;;5052319;28;20305;-66
2023/05/07 00:33:48;;;;;;;;;;;;;;;;;;5053753;28;20528;-65
2023/05/07 00:36:14;;;;;;;;;;;;;;;;;;5052546;28;19925;-65
2023/05/07 00:38:40;;;;;;;;;;;;;;;;;;5051675;28;19936;-66
2023/05/07 00:41:06;;;;;;;;;;;;;;;;;;5051921;28;19937;-66
2023/05/07 00:43:32;;;;;;;;;;;;;;;;;;5053499;28;19939;-66
2023/05/07 00:45:58;;;;;;;;;;;;;;;;;;5052765;28;19920;-66
2023/05/07 00:48:24;;;;;;;;;;;;;;;;;;5049313;28;19982;-66
2023/05/07 00:50:50;;;;;;;;;;;;;;;;;;5052416;28;19925;-65
2023/05/07 00:53:16;;;;;;;;;;;;;;;;;;5053644;28;19928;-66
2023/05/07 00:55:42;;;;;;;;;;;;;;;;;;5054592;28;19920;-66
2023/05/07 00:58:07;;;;;;;;;;;;;;;;;;5053003;28;20290;-64
2023/05/07 01:00:33;;;;;;;;;;;;;;;;;;5051665;28;19925;-65
2023/05/07 01:02:59;;;;;;;;;;;;;;;;;;5054315;28;19944;-65
2023/05/07 01:05:25;;;;;;;;;;;;;;;;;;5053389;28;19921;-65
2023/05/07 01:07:51;;;;;;;;;;;;;;;;;;5052090;28;19921;-65
2023/05/07 01:10:17;;;;;;;;;;;;;;;;;;5053994;28;19924;-64
2023/05/07 01:12:43;;;;;;;;;;;;;;;;;;5034609;28;20409;-65
2023/05/07 01:15:09;;;;;;;;;;;;;;;;;;5046378;28;19924;-65
2023/05/07 01:17:35;;;;;;;;;;;;;;;;;;5046204;28;19961;-65
2023/05/07 01:20:01;;;;;;;;;;;;;;;;;;5050097;28;19932;-65
2023/05/07 01:22:27;;;;;;;;;;;;;;;;;;5050763;28;19924;-65
2023/05/07 01:24:53;;;;;;;;;;;;;;;;;;5053146;28;20362;-65
2023/05/07 01:27:19;;;;;;;;;;;;;;;;;;5053767;28;19924;-65
2023/05/07 01:29:45;;;;;;;;;;;;;;;;;;5052710;28;19927;-65
2023/05/07 01:32:11;;;;;;;;;;;;;;;;;;5049107;28;19920;-65
2023/05/07 01:34:37;;;;;;;;;;;;;;;;;;5050077;28;20117;-65
2023/05/07 01:37:03;;;;;;;;;;;;;;;;;;5046726;28;20370;-65
2023/05/07 01:39:29;;;;;;;;;;;;;;;;;;5053513;28;19942;-66
2023/05/07 01:41:55;;;;;;;;;;;;;;;;;;5050950;28;19929;-66
2023/05/07 01:44:21;;;;;;;;;;;;;;;;;;5050867;28;19932;-65
2023/05/07 01:46:47;;;;;;;;;;;;;;;;;;5049998;28;19929;-65
2023/05/07 01:49:13;;;;;;;;;;;;;;;;;;5048840;28;19938;-65
2023/05/07 01:51:38;;;;;;;;;;;;;;;;;;5050061;28;19920;-65
2023/05/07 01:54:05;;;;;;;;;;;;;;;;;;5051344;28;20487;-65
2023/05/07 01:56:31;;;;;;;;;;;;;;;;;;5052738;28;19964;-65
2023/05/07 01:58:56;;;;;;;;;;;;;;;;;;5053030;28;20579;-65
2023/05/07 02:01:23;;;;;;;;;;;;;;;;;;5052890;28;19929;-66
2023/05/07 02:03:49;;;;;;;;;;;;;;;;;;5051116;28;19925;-65
2023/05/07 02:06:15;;;;;;;;;;;;;;;;;;5052137;28;20261;-65
2023/05/07 02:08:40;;;;;;;;;;;;;;;;;;5040455;28;19990;-65
2023/05/07 02:11:06;;;;;;;;;;;;;;;;;;5039284;28;19921;-66
2023/05/07 02:13:32;;;;;;;;;;;;;;;;;;5052519;28;19994;-66
2023/05/07 02:15:58;;;;;;;;;;;;;;;;;;5049352;28;19921;-64
2023/05/07 02:18:24;;;;;;;;;;;;;;;;;;5048124;28;19927;-65
2023/05/07 02:20:50;;;;;;;;;;;;;;;;;;5053486;28;19925;-65
2023/05/07 02:23:16;;;;;;;;;;;;;;;;;;5050692;28;19924;-65
2023/05/07 02:25:42;;;;;;;;;;;;;;;;;;5046077;28;19924;-65
2023/05/07 02:28:08;;;;;;;;;;;;;;;;;;5050954;28;20023;-65
2023/05/07 02:30:34;;;;;;;;;;;;;;;;;;5049912;28;19925;-65
2023/05/07 02:33:00;;;;;;;;;;;;;;;;;;5050856;28;19924;-65
2023/05/07 02:35:25;;;;;;;;;;;;;;;;;;5052058;28;19931;-65
2023/05/07 02:37:51;;;;;;;;;;;;;;;;;;5051190;28;19966;-65
2023/05/07 02:40:17;;;;;;;;;;;;;;;;;;5050790;28;20557;-65
2023/05/07 02:42:43;;;;;;;;;;;;;;;;;;5049580;28;19939;-65
2023/05/07 02:45:09;;;;;;;;;;;;;;;;;;5049875;28;20429;-65
2023/05/07 02:47:35;;;;;;;;;;;;;;;;;;5049123;28;19928;-65
2023/05/07 02:50:01;;;;;;;;;;;;;;;;;;5050004;28;19974;-65
2023/05/07 02:52:27;;;;;;;;;;;;;;;;;;5048373;28;20433;-65
2023/05/07 02:54:52;;;;;;;;;;;;;;;;;;5047254;28;19931;-65
2023/05/07 02:57:18;;;;;;;;;;;;;;;;;;5047022;28;19924;-65
2023/05/07 02:59:44;;;;;;;;;;;;;;;;;;5049862;28;20010;-66
2023/05/07 03:02:10;;;;;;;;;;;;;;;;;;5044191;28;19929;-65
2023/05/07 03:04:36;;;;;;;;;;;;;;;;;;5048623;28;19920;-65
2023/05/07 03:07:02;;;;;;;;;;;;;;;;;;5049517;28;20047;-65
2023/05/07 03:09:28;;;;;;;;;;;;;;;;;;5051368;28;19927;-65
2023/05/07 03:11:54;;;;;;;;;;;;;;;;;;5033412;28;20294;-65
2023/05/07 03:14:20;;;;;;;;;;;;;;;;;;5048489;28;19936;-66
2023/05/07 03:16:46;;;;;;;;;;;;;;;;;;5048289;28;19928;-66
2023/05/07 03:19:12;;;;;;;;;;;;;;;;;;5046700;28;20012;-65
2023/05/07 03:21:38;;;;;;;;;;;;;;;;;;5050365;28;19928;-65
2023/05/07 03:24:04;;;;;;;;;;;;;;;;;;5050402;28;19927;-65
2023/05/07 03:26:29;;;;;;;;;;;;;;;;;;5048687;28;19956;-66
2023/05/07 03:28:56;;;;;;;;;;;;;;;;;;5049773;28;19927;-65
2023/05/07 03:31:21;;;;;;;;;;;;;;;;;;5047083;28;19925;-66
2023/05/07 03:33:47;;;;;;;;;;;;;;;;;;5048449;28;19928;-66
2023/05/07 03:36:13;;;;;;;;;;;;;;;;;;5050000;28;19964;-66
2023/05/07 03:38:39;;;;;;;;;;;;;;;;;;5049290;28;19931;-66
2023/05/07 03:41:05;;;;;;;;;;;;;;;;;;5047925;28;19979;-65
2023/05/07 03:43:31;;;;;;;;;;;;;;;;;;5049795;28;19964;-65
2023/05/07 03:45:57;;;;;;;;;;;;;;;;;;5047000;28;19935;-65
2023/05/07 03:48:23;;;;;;;;;;;;;;;;;;5048445;28;19925;-65
2023/05/07 03:50:49;;;;;;;;;;;;;;;;;;5044645;28;20024;-65
2023/05/07 03:53:15;;;;;;;;;;;;;;;;;;5048720;28;19920;-66
2023/05/07 03:55:40;;;;;;;;;;;;;;;;;;5048346;28;19921;-66
2023/05/07 03:58:06;;;;;;;;;;;;;;;;;;5049523;28;20465;-66
2023/05/07 04:00:36;;;;;;;;;;;;;;;;;;5047256;28;19971;-65
2023/05/07 04:03:04;;;;;;;;;;;;;;;;;;5026072;28;19975;-65
2023/05/07 04:05:30;;;;;;;;;;;;;;;;;;5043807;28;19921;-65
2023/05/07 04:07:56;;;;;;;;;;;;;;;;;;5039311;28;20376;-66
2023/05/07 04:10:22;;;;;;;;;;;;;;;;;;5047239;28;19963;-65
2023/05/07 04:12:47;;;;;;;;;;;;;;;;;;5044949;28;20384;-66
2023/05/07 04:15:13;;;;;;;;;;;;;;;;;;5044425;28;19999;-66
2023/05/07 04:17:41;;;;;;;;;;;;;;;;;;5046556;28;19925;-66
2023/05/07 04:20:07;;;;;;;;;;;;;;;;;;5048153;28;19967;-65
2023/05/07 04:22:33;;;;;;;;;;;;;;;;;;5046001;28;19936;-66
2023/05/07 04:24:58;;;;;;;;;;;;;;;;;;5047548;28;20494;-66
2023/05/07 04:27:25;;;;;;;;;;;;;;;;;;5048066;28;19924;-65
2023/05/07 04:29:51;;;;;;;;;;;;;;;;;;5047312;28;19925;-65
2023/05/07 04:32:17;;;;;;;;;;;;;;;;;;5049647;28;19924;-65
2023/05/07 04:34:43;;;;;;;;;;;;;;;;;;5049705;28;20472;-66
2023/05/07 04:37:09;;;;;;;;;;;;;;;;;;5050349;28;19928;-66
2023/05/07 04:39:35;;;;;;;;;;;;;;;;;;5047790;28;19921;-66
2023/05/07 04:42:01;;;;;;;;;;;;;;;;;;5046894;28;19928;-66
2023/05/07 04:44:27;;;;;;;;;;;;;;;;;;5049575;28;19928;-65
2023/05/07 04:46:53;;;;;;;;;;;;;;;;;;5048347;28;19929;-66
2023/05/07 04:49:19;;;;;;;;;;;;;;;;;;5053781;22;19921;-66
2023/05/07 04:51:45;;;;;;;;;;;;;;;;;;5042474;28;19940;-66
2023/05/07 04:54:11;;;;;;;;;;;;;;;;;;5046675;28;20000;-66
2023/05/07 04:56:37;;;;;;;;;;;;;;;;;;5048287;28;20015;-66
2023/05/07 04:59:03;;;;;;;;;;;;;;;;;;5048012;28;19925;-66
2023/05/07 05:01:29;;;;;;;;;;;;;;;;;;5045643;28;19929;-66
2023/05/07 05:03:55;;;;;;;;;;;;;;;;;;5048110;28;19925;-66
2023/05/07 05:06:21;;;;;;;;;;;;;;;;;;5047988;28;20446;-66
2023/05/07 05:08:47;;;;;;;;;;;;;;;;;;5050273;28;19931;-66
2023/05/07 05:11:12;;;;;;;;;;;;;;;;;;5052804;28;19921;-66
2023/05/07 05:13:38;;;;;;;;;;;;;;;;;;5054087;28;20301;-66
2023/05/07 05:16:04;;;;;;;;;;;;;;;;;;5053938;28;20389;-66
2023/05/07 05:18:30;;;;;;;;;;;;;;;;;;5053862;28;20025;-65
2023/05/07 05:20:56;;;;;;;;;;;;;;;;;;5050638;28;19924;-65
2023/05/07 05:23:22;;;;;;;;;;;;;;;;;;5034137;28;19925;-65
2023/05/07 05:25:48;;;;;;;;;;;;;;;;;;5053469;28;19920;-66
2023/05/07 05:28:14;;;;;;;;;;;;;;;;;;5054087;28;19929;-65
2023/05/07 05:30:40;;;;;;;;;;;;;;;;;;5052693;28;19920;-65
2023/05/07 05:33:05;;;;;;;;;;;;;;;;;;5053425;28;19928;-65
2023/05/07 05:35:31;;;;;;;;;;;;;;;;;;5050135;28;19920;-65
2023/05/07 05:37:57;;;;;;;;;;;;;;;;;;5048456;28;19928;-65
2023/05/07 05:40:23;;;;;;;;;;;;;;;;;;5052280;28;19932;-66
2023/05/07 05:42:49;;;;;;;;;;;;;;;;;;5052695;28;19971;-66
2023/05/07 05:45:15;;;;;;;;;;;;;;;;;;5050659;28;19925;-66
2023/05/07 05:47:41;;;;;;;;;;;;;;;;;;5045758;28;20469;-66
2023/05/07 05:50:07;;;;;;;;;;;;;;;;;;5051308;28;19992;-65
2023/05/07 05:52:33;;;;;;;;;;;;;;;;;;5051455;28;20398;-66
2023/05/07 05:54:59;;;;;;;;;;;;;;;;;;5050604;28;19921;-65
2023/05/07 05:57:25;;;;;;;;;;;;;;;;;;5051358;28;19932;-65
2023/05/07 05:59:51;;;;;;;;;;;;;;;;;;5052692;28;19921;-65
2023/05/07 06:02:17;;;;;;;;;;;;;;;;;;5048665;28;19920;-66
2023/05/07 06:04:42;;;;;;;;;;;;;;;;;;5051527;28;19925;-65
2023/05/07 06:07:09;;;;;;;;;;;;;;;;;;5052657;28;19932;-66
2023/05/07 06:09:34;;;;;;;;;;;;;;;;;;5050927;28;20014;-66
2023/05/07 06:12:00;;;;;;;;;;;;;;;;;;5050709;28;19959;-65
2023/05/07 06:14:26;;;;;;;;;;;;;;;;;;5049356;28;19943;-65
2023/05/07 06:16:52;;;;;;;;;;;;;;;;;;5049053;28;19925;-65
2023/05/07 06:19:22;;;;;;;;;;;;;;;;;;5050059;28;19949;-66
2023/05/07 06:21:48;;;;;;;;;;;;;;;;;;5048127;28;20374;-65
2023/05/07 06:24:14;;;;;;;;;;;;;;;;;;5050665;28;19940;-65
2023/05/07 06:26:40;;;;;;;;;;;;;;;;;;5049417;28;19924;-66
2023/05/07 06:29:06;;;;;;;;;;;;;;;;;;5051074;28;20299;-66
2023/05/07 06:31:32;;;;;;;;;;;;;;;;;;5050306;28;19929;-66
2023/05/07 06:33:58;;;;;;;;;;;;;;;;;;5049984;28;20298;-66
2023/05/07 06:36:24;;;;;;;;;;;;;;;;;;5050224;28;19920;-66
2023/05/07 06:38:50;;;;;;;;;;;;;;;;;;5048867;28;19931;-66
2023/05/07 06:41:16;;;;;;;;;;;;;;;;;;5039970;28;19932;-66
2023/05/07 06:43:42;;;;;;;;;;;;;;;;;;5048057;28;19961;-66
2023/05/07 06:46:08;;;;;;;;;;;;;;;;;;5049237;28;19921;-65
2023/05/07 06:48:34;;;;;;;;;;;;;;;;;;5049271;28;19924;-65
2023/05/07 06:51:00;;;;;;;;;;;;;;;;;;5050744;28;20016;-65
2023/05/07 06:53:26;;;;;;;;;;;;;;;;;;5049335;28;20011;-65
2023/05/07 06:55:52;;;;;;;;;;;;;;;;;;5049879;28;20616;-65
2023/05/07 06:58:18;;;;;;;;;;;;;;;;;;5052092;28;20008;-64
2023/05/07 07:00:45;;;;;;;;;;;;;;;;;;5049141;28;20010;-66
2023/05/07 07:03:11;;;;;;;;;;;;;;;;;;5052068;28;19929;-69
2023/05/07 07:05:37;;;;;;;;;;;;;;;;;;5046941;28;19928;-66
2023/05/07 07:08:03;;;;;;;;;;;;;;;;;;5051521;28;19921;-66
2023/05/07 07:10:29;;;;;;;;;;;;;;;;;;5051021;28;19947;-66
2023/05/07 07:12:55;;;;;;;;;;;;;;;;;;5033887;28;19925;-66
2023/05/07 07:15:21;;;;;;;;;;;;;;;;;;5039535;28;20310;-66
2023/05/07 07:17:46;;;;;;;;;;;;;;;;;;5048333;28;19929;-64
2023/05/07 07:20:12;;;;;;;;;;;;;;;;;;5048444;28;20022;-65
2023/05/07 07:22:38;;;;;;;;;;;;;;;;;;5050604;28;19925;-65
2023/05/07 07:25:04;;;;;;;;;;;;;;;;;;5044906;28;19948;-65
2023/05/07 07:27:30;;;;;;;;;;;;;;;;;;5040624;28;19921;-65
2023/05/07 07:29:56;;;;;;;;;;;;;;;;;;5052174;28;19959;-65
2023/05/07 07:32:22;;;;;;;;;;;;;;;;;;5056015;28;20429;-65
2023/05/07 07:34:48;;;;;;;;;;;;;;;;;;5045907;28;19932;-65
2023/05/07 07:37:14;;;;;;;;;;;;;;;;;;5046079;28;19928;-65
2023/05/07 07:39:40;;;;;;;;;;;;;;;;;;5050476;28;19928;-66
2023/05/07 07:42:06;;;;;;;;;;;;;;;;;;5051964;28;20004;-65
2023/05/07 07:44:32;;;;;;;;;;;;;;;;;;5042469;28;20008;-66
2023/05/07 07:46:58;;;;;;;;;;;;;;;;;;5031908;28;19921;-64
2023/05/07 07:49:24;;;;;;;;;;;;;;;;;;5045407;28;19928;-65
2023/05/07 07:51:51;;;;;;;;;;;;;;;;;;5051289;28;19929;-65
2023/05/07 07:54:16;;;;;;;;;;;;;;;;;;5050217;28;19921;-65
2023/05/07 07:56:42;;;;;;;;;;;;;;;;;;5048181;28;20079;-65
2023/05/07 07:59:08;;;;;;;;;;;;;;;;;;5050818;28;19925;-65
2023/05/07 08:01:34;;;;;;;;;;;;;;;;;;5048875;28;19946;-65
2023/05/07 08:04:02;;;;;;;;;;;;;;;;;;5047253;28;19948;-65
2023/05/07 08:06:28;;;;;;;;;;;;;;;;;;5050341;28;19936;-66
2023/05/07 08:08:54;;;;;;;;;;;;;;;;;;5031972;28;19988;-65
2023/05/07 08:11:21;;;;;;;;;;;;;;;;;;5033650;28;19927;-65
2023/05/07 08:13:47;;;;;;;;;;;;;;;;;;5038464;28;19929;-66
2023/05/07 08:16:13;;;;;;;;;;;;;;;;;;5048620;28;19932;-66
2023/05/07 08:18:39;;;;;;;;;;;;;;;;;;5045954;28;19924;-65
2023/05/07 08:21:04;;;;;;;;;;;;;;;;;;5048323;28;19928;-65
2023/05/07 08:23:30;;;;;;;;;;;;;;;;;;5047580;28;19929;-66
2023/05/07 08:25:56;;;;;;;;;;;;;;;;;;5046398;28;19996;-67
2023/05/07 08:28:24;;;;;;;;;;;;;;;;;;5047757;28;19932;-66
2023/05/07 08:30:50;;;;;;;;;;;;;;;;;;5039492;28;19925;-64
2023/05/07 08:33:16;;;;;;;;;;;;;;;;;;5048658;28;19928;-66
2023/05/07 08:35:42;;;;;;;;;;;;;;;;;;5048872;28;20309;-66
2023/05/07 08:38:08;;;;;;;;;;;;;;;;;;5031247;28;19921;-66
2023/05/07 08:40:33;;;;;;;;;;;;;;;;;;5048270;28;19929;-66
2023/05/07 08:43:00;;;;;;;;;;;;;;;;;;5049042;28;19962;-66
2023/05/07 08:45:26;;;;;;;;;;;;;;;;;;5050742;28;19933;-66
2023/05/07 08:47:52;;;;;;;;;;;;;;;;;;5052896;28;19971;-67
2023/05/07 08:50:18;;;;;;;;;;;;;;;;;;5049727;28;19925;-67
2023/05/07 08:52:44;;;;;;;;;;;;;;;;;;5049379;28;19929;-67
2023/05/07 08:55:10;;;;;;;;;;;;;;;;;;5051696;28;20316;-67
2023/05/07 08:57:36;;;;;;;;;;;;;;;;;;5052153;28;19925;-68
2023/05/07 09:00:02;;;;;;;;;;;;;;;;;;5052039;28;20026;-65
2023/05/07 09:02:28;;;;;;;;;;;;;;;;;;5051945;28;20054;-65
2023/05/07 09:04:54;;;;;;;;;;;;;;;;;;5052666;28;20040;-66
2023/05/07 09:07:20;;;;;;;;;;;;;;;;;;5051003;28;19928;-66
2023/05/07 09:09:46;;;;;;;;;;;;;;;;;;5052217;28;19974;-65
2023/05/07 09:12:12;;;;;;;;;;;;;;;;;;5052505;28;20370;-65
2023/05/07 09:14:39;;;;;;;;;;;;;;;;;;5052711;28;19987;-65
2023/05/07 09:17:05;;;;;;;;;;;;;;;;;;5052295;28;19979;-65
2023/05/07 09:19:31;;;;;;;;;;;;;;;;;;5052419;28;19991;-65
2023/05/07 09:21:57;;;;;;;;;;;;;;;;;;5040986;28;19980;-65
2023/05/07 09:24:22;;;;;;;;;;;;;;;;;;5058089;28;19935;-65
2023/05/07 09:26:48;;;;;;;;;;;;;;;;;;5052299;28;19924;-65
2023/05/07 09:29:14;;;;;;;;;;;;;;;;;;5031655;28;19925;-65
2023/05/07 09:31:40;;;;;;;;;;;;;;;;;;5038671;28;20019;-66
2023/05/07 09:34:06;;;;;;;;;;;;;;;;;;5042523;28;19951;-65
2023/05/07 09:36:32;;;;;;;;;;;;;;;;;;5048711;28;19921;-66
2023/05/07 09:38:58;;;;;;;;;;;;;;;;;;5035241;28;19924;-68
2023/05/07 09:41:24;;;;;;;;;;;;;;;;;;5051634;28;19966;-66
2023/05/07 09:43:50;;;;;;;;;;;;;;;;;;5051588;28;19933;-66
2023/05/07 09:46:16;;;;;;;;;;;;;;;;;;5043221;28;19940;-66
2023/05/07 09:48:42;;;;;;;;;;;;;;;;;;5047284;28;20013;-66
2023/05/07 09:51:08;;;;;;;;;;;;;;;;;;5051555;28;19975;-66
2023/05/07 09:53:34;;;;;;;;;;;;;;;;;;5049087;28;19925;-66
2023/05/07 09:56:00;;;;;;;;;;;;;;;;;;5050683;28;19924;-67
2023/05/07 09:58:26;;;;;;;;;;;;;;;;;;5049412;28;19921;-67
2023/05/07 10:00:52;;;;;;;;;;;;;;;;;;5046021;28;20370;-66
2023/05/07 10:03:18;;;;;;;;;;;;;;;;;;5053811;28;19925;-66
2023/05/07 10:05:44;;;;;;;;;;;;;;;;;;5046922;28;20330;-67
2023/05/07 10:08:10;;;;;;;;;;;;;;;;;;5050528;28;19925;-67
2023/05/07 10:10:36;;;;;;;;;;;;;;;;;;5048281;28;19936;-66
2023/05/07 10:13:05;;;;;;;;;;;;;;;;;;5049480;28;19925;-67
2023/05/07 10:15:31;;;;;;;;;;;;;;;;;;5051612;28;19925;-67
2023/05/07 10:17:57;;;;;;;;;;;;;;;;;;5053147;28;19927;-67
2023/05/07 10:20:23;;;;;;;;;;;;;;;;;;5053973;28;19925;-67
2023/05/07 10:22:49;;;;;;;;;;;;;;;;;;5049217;28;20346;-67
2023/05/07 10:25:15;;;;;;;;;;;;;;;;;;5050937;28;20677;-64
2023/05/07 10:27:41;;;;;;;;;;;;;;;;;;5049632;28;19920;-66
2023/05/07 10:30:06;;;;;;;;;;;;;;;;;;5049985;28;19924;-66
2023/05/07 10:32:32;;;;;;;;;;;;;;;;;;5042808;28;19931;-66
2023/05/07 10:34:58;;;;;;;;;;;;;;;;;;5051431;28;20377;-65
2023/05/07 10:37:24;;;;;;;;;;;;;;;;;;5050830;28;19921;-66
2023/05/07 10:39:50;;;;;;;;;;;;;;;;;;5050236;28;19990;-66
2023/05/07 10:42:16;;;;;;;;;;;;;;;;;;5050774;28;19920;-66
2023/05/07 10:44:42;;;;;;;;;;;;;;;;;;5052517;28;20341;-66
2023/05/07 10:47:09;;;;;;;;;;;;;;;;;;5047921;28;20397;-66
2023/05/07 10:49:35;;;;;;;;;;;;;;;;;;5045203;28;19928;-67
2023/05/07 10:52:00;;;;;;;;;;;;;;;;;;5051390;28;19929;-66
2023/05/07 10:54:26;;;;;;;;;;;;;;;;;;5053554;28;19927;-66
2023/05/07 10:56:52;;;;;;;;;;;;;;;;;;5055487;28;20367;-66
2023/05/07 10:59:18;;;;;;;;;;;;;;;;;;5049935;28;20461;-67
2023/05/07 11:01:44;;;;;;;;;;;;;;;;;;5049458;28;20342;-66
2023/05/07 11:04:10;;;;;;;;;;;;;;;;;;5049066;28;19928;-66
2023/05/07 11:06:38;;;;;;;;;;;;;;;;;;5047912;28;20198;-67
2023/05/07 11:09:04;;;;;;;;;;;;;;;;;;5045854;28;19925;-65
2023/05/07 11:11:30;;;;;;;;;;;;;;;;;;5046681;28;19970;-67
2023/05/07 11:13:56;;;;;;;;;;;;;;;;;;5043872;28;20282;-67
2023/05/07 11:16:22;;;;;;;;;;;;;;;;;;5046440;28;20019;-67
2023/05/07 11:18:49;;;;;;;;;;;;;;;;;;5050371;28;19921;-67
2023/05/07 11:21:15;;;;;;;;;;;;;;;;;;5050760;28;19929;-67
2023/05/07 11:23:41;;;;;;;;;;;;;;;;;;5049288;28;20016;-66
2023/05/07 11:26:07;;;;;;;;;;;;;;;;;;5048472;28;19921;-66
2023/05/07 11:28:32;;;;;;;;;;;;;;;;;;5046110;28;19925;-66
2023/05/07 11:30:58;;;;;;;;;;;;;;;;;;5045499;28;19974;-66
2023/05/07 11:33:25;;;;;;;;;;;;;;;;;;5045376;28;20247;-67
2023/05/07 11:35:51;;;;;;;;;;;;;;;;;;5042550;28;19995;-66
2023/05/07 11:38:17;;;;;;;;;;;;;;;;;;5050097;28;20421;-66
2023/05/07 11:40:43;;;;;;;;;;;;;;;;;;5050174;28;19947;-66
2023/05/07 11:43:08;;;;;;;;;;;;;;;;;;5050962;28;20294;-66
2023/05/07 11:45:35;;;;;;;;;;;;;;;;;;5049232;28;19932;-66
2023/05/07 11:48:00;;;;;;;;;;;;;;;;;;5047858;28;20993;-65
2023/05/07 11:50:26;;;;;;;;;;;;;;;;;;5044955;28;20008;-66
2023/05/07 11:52:52;;;;;;;;;;;;;;;;;;5050900;28;19921;-67
2023/05/07 11:55:19;;;;;;;;;;;;;;;;;;5051369;28;20421;-67
2023/05/07 11:57:45;;;;;;;;;;;;;;;;;;5049175;28;19921;-66
2023/05/07 12:00:11;;;;;;;;;;;;;;;;;;5030591;28;19927;-66
2023/05/07 12:02:37;;;;;;;;;;;;;;;;;;5045139;28;19929;-67
2023/05/07 12:05:03;;;;;;;;;;;;;;;;;;5043188;28;19931;-67
2023/05/07 12:07:29;;;;;;;;;;;;;;;;;;5047806;28;19921;-67
2023/05/07 12:09:55;;;;;;;;;;;;;;;;;;5032185;28;20490;-66
2023/05/07 12:12:21;;;;;;;;;;;;;;;;;;5042996;28;19928;-67
2023/05/07 12:14:47;;;;;;;;;;;;;;;;;;5036584;28;19921;-66
2023/05/07 12:17:13;;;;;;;;;;;;;;;;;;5030111;28;20612;-66
2023/05/07 12:19:39;;;;;;;;;;;;;;;;;;5032815;28;19925;-66
2023/05/07 12:22:05;;;;;;;;;;;;;;;;;;5053049;28;19932;-67
2023/05/07 12:24:31;;;;;;;;;;;;;;;;;;5055681;28;19921;-66
2023/05/07 12:26:57;;;;;;;;;;;;;;;;;;5055459;28;20316;-67
2023/05/07 12:29:23;;;;;;;;;;;;;;;;;;5052735;28;20018;-67
2023/05/07 12:31:48;;;;;;;;;;;;;;;;;;5052805;28;19958;-66
2023/05/07 12:34:14;;;;;;;;;;;;;;;;;;5047648;28;19921;-67
2023/05/07 12:36:40;;;;;;;;;;;;;;;;;;5035557;28;20298;-66
2023/05/07 12:39:07;;;;;;;;;;;;;;;;;;5035544;28;20004;-66
2023/05/07 12:41:33;;;;;;;;;;;;;;;;;;5035651;28;19926;-65
2023/05/07 12:43:59;;;;;;;;;;;;;;;;;;5033733;28;20400;-67
2023/05/07 12:46:25;;;;;;;;;;;;;;;;;;5036943;28;19925;-67
2023/05/07 12:48:50;;;;;;;;;;;;;;;;;;5054857;28;20011;-67
2023/05/07 12:51:16;;;;;;;;;;;;;;;;;;5049589;28;20013;-66
2023/05/07 12:53:42;;;;;;;;;;;;;;;;;;5043540;28;20374;-66
2023/05/07 12:56:08;;;;;;;;;;;;;;;;;;5055255;28;19990;-66
2023/05/07 12:58:34;;;;;;;;;;;;;;;;;;5053456;28;19929;-65
2023/05/07 13:01:00;;;;;;;;;;;;;;;;;;5055012;28;19921;-66
2023/05/07 13:03:26;;;;;;;;;;;;;;;;;;5046078;28;20617;-66
2023/05/07 13:05:52;;;;;;;;;;;;;;;;;;5054936;28;19994;-67
2023/05/07 13:08:18;;;;;;;;;;;;;;;;;;5053206;28;20008;-66
2023/05/07 13:10:44;;;;;;;;;;;;;;;;;;5053436;28;20417;-66
2023/05/07 13:13:10;;;;;;;;;;;;;;;;;;5054777;28;19925;-66
2023/05/07 13:15:36;;;;;;;;;;;;;;;;;;5054808;28;20297;-66
2023/05/07 13:18:02;;;;;;;;;;;;;;;;;;5053228;28;19921;-66
2023/05/07 13:20:28;;;;;;;;;;;;;;;;;;5054444;28;19921;-67
2023/05/07 13:22:54;;;;;;;;;;;;;;;;;;5054608;28;20369;-66
2023/05/07 13:25:20;;;;;;;;;;;;;;;;;;5052897;28;20035;-66
2023/05/07 13:27:45;;;;;;;;;;;;;;;;;;5053464;28;19921;-65
2023/05/07 13:30:11;;;;;;;;;;;;;;;;;;5052194;28;19928;-66
2023/05/07 13:32:37;;;;;;;;;;;;;;;;;;5052007;28;20003;-65
2023/05/07 13:35:04;;;;;;;;;;;;;;;;;;5038348;28;19935;-66
2023/05/07 13:37:30;;;;;;;;;;;;;;;;;;5047151;28;20074;-66
2023/05/07 13:39:56;;;;;;;;;;;;;;;;;;5054367;28;20731;-66
2023/05/07 13:42:22;;;;;;;;;;;;;;;;;;5053930;28;20386;-67
2023/05/07 13:44:48;;;;;;;;;;;;;;;;;;5054191;28;19951;-67
2023/05/07 13:47:13;;;;;;;;;;;;;;;;;;5053942;28;19929;-66
2023/05/07 13:49:39;;;;;;;;;;;;;;;;;;5052333;28;20630;-67
2023/05/07 13:52:05;;;;;;;;;;;;;;;;;;5054169;28;19964;-65
2023/05/07 13:54:31;;;;;;;;;;;;;;;;;;5053555;28;19963;-66
2023/05/07 13:56:57;;;;;;;;;;;;;;;;;;5053835;28;19920;-67
2023/05/07 13:59:23;;;;;;;;;;;;;;;;;;5053646;28;19925;-67
2023/05/07 14:01:49;;;;;;;;;;;;;;;;;;5046061;28;19983;-67
2023/05/07 14:04:15;;;;;;;;;;;;;;;;;;5032357;28;19921;-66
2023/05/07 14:06:41;;;;;;;;;;;;;;;;;;5044001;28;19921;-67
2023/05/07 14:09:07;;;;;;;;;;;;;;;;;;5053807;28;19924;-67
2023/05/07 14:11:33;;;;;;;;;;;;;;;;;;5053430;28;20023;-67
2023/05/07 14:13:59;;;;;;;;;;;;;;;;;;5052170;28;20017;-66
2023/05/07 14:16:25;;;;;;;;;;;;;;;;;;5053590;28;20031;-67
2023/05/07 14:18:51;;;;;;;;;;;;;;;;;;5053401;28;20080;-65
2023/05/07 14:21:16;;;;;;;;;;;;;;;;;;5051841;28;20398;-66
2023/05/07 14:23:42;;;;;;;;;;;;;;;;;;5052362;28;19928;-66
2023/05/07 14:26:08;;;;;;;;;;;;;;;;;;5053241;28;19952;-65
2023/05/07 14:28:34;;;;;;;;;;;;;;;;;;5052664;28;20567;-66
2023/05/07 14:31:00;;;;;;;;;;;;;;;;;;5051723;28;19987;-63
2023/05/07 14:33:26;;;;;;;;;;;;;;;;;;5052248;28;19921;-63
2023/05/07 14:35:52;;;;;;;;;;;;;;;;;;5054017;28;19920;-63
2023/05/07 14:38:18;;;;;;;;;;;;;;;;;;5053948;28;19971;-63
2023/05/07 14:40:44;;;;;;;;;;;;;;;;;;5046439;28;19929;-63
2023/05/07 14:43:10;;;;;;;;;;;;;;;;;;5033819;28;19932;-63
2023/05/07 14:45:36;;;;;;;;;;;;;;;;;;5047592;28;20002;-63
2023/05/07 14:48:01;;;;;;;;;;;;;;;;;;5054028;28;20027;-63
2023/05/07 14:50:27;;;;;;;;;;;;;;;;;;5052203;28;19928;-62
2023/05/07 14:52:53;;;;;;;;;;;;;;;;;;5053896;28;19931;-63
2023/05/07 14:55:19;;;;;;;;;;;;;;;;;;5054038;28;19921;-62
2023/05/07 14:57:45;;;;;;;;;;;;;;;;;;5044687;28;19971;-62
2023/05/07 15:00:11;;;;;;;;;;;;;;;;;;5032551;28;19984;-62
2023/05/07 15:02:37;;;;;;;;;;;;;;;;;;5047749;28;19925;-63
2023/05/07 15:05:03;;;;;;;;;;;;;;;;;;5053650;28;19927;-63
2023/05/07 15:07:29;;;;;;;;;;;;;;;;;;5053170;28;20015;-63
2023/05/07 15:09:55;;;;;;;;;;;;;;;;;;5052847;28;20011;-63
2023/05/07 15:12:21;;;;;;;;;;;;;;;;;;5051660;28;20045;-63
2023/05/07 15:14:47;;;;;;;;;;;;;;;;;;5051400;28;19924;-63
2023/05/07 15:17:14;;;;;;;;;;;;;;;;;;5053947;28;19921;-62
2023/05/07 15:19:40;;;;;;;;;;;;;;;;;;5049238;28;19921;-62
2023/05/07 15:22:06;;;;;;;;;;;;;;;;;;5046852;28;19931;-62
2023/05/07 15:24:32;;;;;;;;;;;;;;;;;;5033413;28;19921;-62
2023/05/07 15:26:58;;;;;;;;;;;;;;;;;;5048182;28;19920;-62
2023/05/07 15:29:24;;;;;;;;;;;;;;;;;;5050725;28;20401;-63
2023/05/07 15:31:51;;;;;;;;;;;;;;;;;;5051222;28;19921;-62
2023/05/07 15:34:17;;;;;;;;;;;;;;;;;;5050731;28;20389;-63
2023/05/07 15:36:43;;;;;;;;;;;;;;;;;;5048272;28;19925;-63
2023/05/07 15:39:09;;;;;;;;;;;;;;;;;;5044083;28;19966;-62
2023/05/07 15:41:36;;;;;;;;;;;;;;;;;;5039508;28;19932;-63
2023/05/07 15:44:02;;;;;;;;;;;;;;;;;;5048507;28;19928;-62
2023/05/07 15:46:28;;;;;;;;;;;;;;;;;;5049352;28;19920;-63
2023/05/07 15:48:55;;;;;;;;;;;;;;;;;;5050177;28;19960;-63
2023/05/07 15:51:21;;;;;;;;;;;;;;;;;;5051467;28;19925;-62
2023/05/07 15:53:47;;;;;;;;;;;;;;;;;;5051125;28;20378;-63
2023/05/07 15:56:13;;;;;;;;;;;;;;;;;;5052785;28;19939;-62
2023/05/07 15:58:39;;;;;;;;;;;;;;;;;;5040001;28;19933;-62
2023/05/07 16:01:05;;;;;;;;;;;;;;;;;;5048868;28;19944;-62
2023/05/07 16:03:31;;;;;;;;;;;;;;;;;;5033454;28;19928;-62
2023/05/07 16:05:57;;;;;;;;;;;;;;;;;;5044832;28;20011;-62
2023/05/07 16:08:23;;;;;;;;;;;;;;;;;;5048718;28;20011;-62
2023/05/07 16:10:49;;;;;;;;;;;;;;;;;;5052012;28;19921;-62
2023/05/07 16:13:17;;;;;;;;;;;;;;;;;;5050153;28;19935;-62
2023/05/07 16:15:43;;;;;;;;;;;;;;;;;;5047216;28;19924;-62
2023/05/07 16:18:10;;;;;;;;;;;;;;;;;;5051214;28;19920;-62
2023/05/07 16:20:36;;;;;;;;;;;;;;;;;;5049748;28;19921;-63
2023/05/07 16:23:02;;;;;;;;;;;;;;;;;;5058791;28;19936;-62
2023/05/07 16:25:28;;;;;;;;;;;;;;;;;;5039034;28;19921;-62
2023/05/07 16:27:54;;;;;;;;;;;;;;;;;;5050622;28;19925;-61
2023/05/07 16:30:20;;;;;;;;;;;;;;;;;;5051284;28;19959;-61
2023/05/07 16:32:46;;;;;;;;;;;;;;;;;;5051706;28;20300;-61
2023/05/07 16:35:12;;;;;;;;;;;;;;;;;;5051724;28;19921;-62
2023/05/07 16:37:37;;;;;;;;;;;;;;;;;;5050899;28;19924;-62